»·PEaware :: AAL1230 KAUS-EFHK

AAL1230 :: KAUS-EFHK

FLIGHT INFORMATION

Flight Status: Arrived
Operator:
American Airlines
More flights by this operator :: More flights under this callsign
Pilot: Kyle K. (11122)
Aircraft: AIRBUS A330
(A330)
More flights by this aircraft type
Origin: KAUS Austin Bergstrom Intl
United States
Destination: EFHK Vantaa
Finland
More flights between these airports :: More routes between these airports
Route: CWK6 CWK J21 ACT RZC J105 SGF/N0463F370 J105 BAE YLD ZEM 9H YVP MIBNO/M080F370 KU/M080F390 65N050W 67N040W 68N030W 68N020W 68N010W 67N000E/N0449F390 GIKAV UXADA L80 LAKUT LAKU3A
File this flight plan on PilotEdge
Remarks:
Altitude:
(Current/Filed)
35,000ft
Speed:
(Current/Filed)
457kts
Departed: 22-Feb-18 03:27 PM
Arrived: 23-Feb-18 12:56 AM
Distance/Time
Traveled:
4685nm/9:29
Distance/Time
To Go:
Arrived

Flight Plot

Page will automatically refresh every two minutes.

Flight plan parsing failed; only flown route is shown


Map Options




Map Legend


Flown Route
Filed Route
Departure Airport
Arrival Airport
Navaid (VOR, NDB)
Fix

Horizontal Profiles

Position Reports

Time Latitude Longitude Heading Altitude Ground
Speed
22-Feb-18 15:01 30.201624 -97.664991 357 501ft 0kts
22-Feb-18 15:02 30.201624 -97.664991 357 501ft 0kts
22-Feb-18 15:03 30.201624 -97.664991 357 501ft 0kts
22-Feb-18 15:04 30.201624 -97.664991 357 501ft 0kts
22-Feb-18 15:05 30.201624 -97.664991 357 501ft 0kts
22-Feb-18 15:06 30.201624 -97.664991 357 501ft 0kts
22-Feb-18 15:07 30.201624 -97.664991 357 501ft 0kts
22-Feb-18 15:08 30.201624 -97.664991 357 501ft 0kts
22-Feb-18 15:09 30.201624 -97.664991 357 501ft 0kts
22-Feb-18 15:10 30.201624 -97.664991 357 501ft 0kts
22-Feb-18 15:11 30.201624 -97.664991 357 501ft 0kts
22-Feb-18 15:12 30.201624 -97.664991 357 501ft 0kts
22-Feb-18 15:13 30.201624 -97.664991 357 501ft 0kts
22-Feb-18 15:14 30.201624 -97.664991 357 501ft 0kts
22-Feb-18 15:15 30.201624 -97.664991 357 501ft 0kts
22-Feb-18 15:16 30.201624 -97.664991 357 501ft 0kts
22-Feb-18 15:17 30.201624 -97.664991 357 501ft 0kts
22-Feb-18 15:18 30.201623 -97.664991 357 501ft 0kts
22-Feb-18 15:19 30.201291 -97.664972 348 501ft 2kts
22-Feb-18 15:20 30.201081 -97.664397 265 500ft 2kts
22-Feb-18 15:21 30.201115 -97.663864 265 500ft 2kts
22-Feb-18 15:22 30.201125 -97.663697 268 500ft 0kts
22-Feb-18 15:23 30.201125 -97.663697 268 500ft 0kts
22-Feb-18 15:24 30.201094 -97.664538 260 500ft 3kts
22-Feb-18 15:25 30.200582 -97.666535 237 502ft 18kts
22-Feb-18 15:26 30.198319 -97.668275 267 501ft 19kts
22-Feb-18 15:27 30.197438 -97.673218 181 503ft 10kts
22-Feb-18 15:28 30.193019 -97.673120 177 501ft 17kts
22-Feb-18 15:29 30.190327 -97.673052 177 498ft 11kts
22-Feb-18 15:30 30.185588 -97.672919 178 493ft 24kts
22-Feb-18 15:31 30.180614 -97.672999 212 486ft 11kts
22-Feb-18 15:32 30.180164 -97.677736 269 488ft 13kts
22-Feb-18 15:33 30.180293 -97.678416 354 488ft 2kts
22-Feb-18 15:34 30.199912 -97.678967 357 512ft 154kts
22-Feb-18 15:35 30.240117 -97.669247 24 2135ft 169kts
22-Feb-18 15:36 30.279476 -97.644083 22 2759ft 217kts
22-Feb-18 15:37 30.331118 -97.620036 18 4033ft 253kts
22-Feb-18 15:38 30.391340 -97.594680 15 5989ft 265kts
22-Feb-18 15:39 30.456462 -97.568440 14 7813ft 282kts
22-Feb-18 15:40 30.529585 -97.540281 14 9644ft 300kts
22-Feb-18 15:41 30.612439 -97.509298 15 10616ft 352kts
22-Feb-18 15:42 30.708077 -97.473308 16 11677ft 398kts
22-Feb-18 15:43 30.811693 -97.441169 7 13678ft 410kts
22-Feb-18 15:44 30.920094 -97.418820 7 15490ft 425kts
22-Feb-18 15:45 31.031146 -97.395043 6 17058ft 444kts
22-Feb-18 15:46 31.135765 -97.373005 5 18572ft 454kts
22-Feb-18 15:47 31.253227 -97.348959 5 20119ft 465kts
22-Feb-18 15:48 31.373202 -97.323919 5 21532ft 476kts
22-Feb-18 15:49 31.497421 -97.298792 5 22880ft 486kts
22-Feb-18 15:50 31.627596 -97.273406 4 24171ft 495kts
22-Feb-18 15:51 31.750221 -97.208860 30 25320ft 515kts
22-Feb-18 15:52 31.869105 -97.125013 28 26542ft 521kts
22-Feb-18 15:53 31.991397 -97.040135 28 27713ft 526kts
22-Feb-18 15:54 32.114101 -96.955133 28 28804ft 531kts
22-Feb-18 15:55 32.235862 -96.870981 28 29934ft 530kts
22-Feb-18 15:56 32.358797 -96.785645 28 31035ft 528kts
22-Feb-18 15:57 32.481571 -96.700461 28 32034ft 527kts
22-Feb-18 15:58 32.603800 -96.615693 28 32951ft 526kts
22-Feb-18 15:59 32.726214 -96.530867 28 33794ft 525kts
22-Feb-18 16:00 32.850696 -96.444669 27 34576ft 524kts
22-Feb-18 16:01 32.975902 -96.358080 27 35286ft 523kts
22-Feb-18 16:02 33.099389 -96.270771 28 35374ft 534kts
22-Feb-18 16:03 33.222513 -96.186019 27 35685ft 538kts
22-Feb-18 16:04 33.348087 -96.099382 27 36166ft 537kts
22-Feb-18 16:05 33.473384 -96.012998 27 36588ft 537kts
22-Feb-18 16:06 33.598048 -95.927020 27 36977ft 537kts
22-Feb-18 16:07 33.723936 -95.840360 27 37248ft 530kts
22-Feb-18 16:08 33.850992 -95.752936 27 37256ft 542kts
22-Feb-18 16:09 33.979849 -95.664374 27 37254ft 539kts
22-Feb-18 16:10 34.108878 -95.575730 26 37248ft 541kts
22-Feb-18 16:11 34.233126 -95.491174 26 37250ft 541kts
22-Feb-18 16:12 34.359840 -95.404331 26 37248ft 540kts
22-Feb-18 16:13 34.484456 -95.317957 28 37252ft 540kts
22-Feb-18 16:14 34.614008 -95.228458 27 37251ft 541kts
22-Feb-18 16:15 34.741122 -95.141541 27 37247ft 541kts
22-Feb-18 16:16 34.868963 -95.054162 26 37279ft 541kts
22-Feb-18 16:17 34.998657 -94.965206 26 37271ft 551kts
22-Feb-18 16:18 35.128199 -94.876437 25 37246ft 561kts
22-Feb-18 16:19 35.258722 -94.787928 25 37228ft 555kts
22-Feb-18 16:20 35.389503 -94.698876 25 37232ft 556kts
22-Feb-18 16:21 35.521774 -94.608899 25 37233ft 556kts
22-Feb-18 16:22 35.654207 -94.518922 25 37233ft 556kts
22-Feb-18 16:23 35.786456 -94.429304 25 37221ft 556kts
22-Feb-18 16:24 35.916016 -94.341593 26 37212ft 556kts
22-Feb-18 16:25 36.043913 -94.254502 25 37222ft 556kts
22-Feb-18 16:26 36.168166 -94.171309 25 37228ft 555kts
22-Feb-18 16:27 36.294408 -94.086604 30 37226ft 557kts
22-Feb-18 16:28 36.423023 -93.992547 27 37211ft 556kts
22-Feb-18 16:29 36.553628 -93.899422 26 37209ft 557kts
22-Feb-18 16:30 36.686356 -93.804998 26 37225ft 556kts
22-Feb-18 16:31 36.819355 -93.710532 26 37255ft 556kts
22-Feb-18 16:32 36.949876 -93.618072 26 37235ft 557kts
22-Feb-18 16:33 37.079781 -93.525367 25 37231ft 567kts
22-Feb-18 16:34 37.204152 -93.437030 24 37237ft 578kts
22-Feb-18 16:35 37.334326 -93.346676 23 37229ft 575kts
22-Feb-18 16:36 37.462025 -93.233120 35 37241ft 583kts
22-Feb-18 16:37 37.583765 -93.118251 33 37221ft 582kts
22-Feb-18 16:38 37.707690 -93.002614 33 37300ft 578kts
22-Feb-18 16:39 37.833271 -92.885786 33 37316ft 574kts
22-Feb-18 16:40 37.959924 -92.768790 32 37316ft 574kts
22-Feb-18 16:41 38.087296 -92.651364 36 37339ft 574kts
22-Feb-18 16:42 38.207053 -92.535295 33 37329ft 574kts
22-Feb-18 16:43 38.332259 -92.416106 33 37349ft 574kts
22-Feb-18 16:44 38.453341 -92.300713 34 37370ft 574kts
22-Feb-18 16:45 38.579315 -92.181799 33 37367ft 574kts
22-Feb-18 16:46 38.706624 -92.059900 35 37346ft 575kts
22-Feb-18 16:47 38.832075 -91.937870 34 37356ft 574kts
22-Feb-18 16:48 38.958717 -91.816035 33 37365ft 580kts
22-Feb-18 16:49 39.087148 -91.689672 34 37363ft 592kts
22-Feb-18 16:50 39.212026 -91.565345 33 37352ft 589kts
22-Feb-18 16:51 39.340046 -91.438872 33 37353ft 588kts
22-Feb-18 16:52 39.464980 -91.315335 34 37310ft 589kts
22-Feb-18 16:53 39.591172 -91.189777 32 37327ft 586kts
22-Feb-18 16:54 39.720196 -91.068305 27 37338ft 577kts
22-Feb-18 16:55 39.844223 -90.937525 32 37322ft 579kts
22-Feb-18 16:56 39.970488 -90.811583 31 37334ft 579kts
22-Feb-18 16:57 40.096167 -90.684340 35 37360ft 582kts
22-Feb-18 16:58 40.218727 -90.556751 32 37374ft 578kts
22-Feb-18 16:59 40.343599 -90.428955 32 37367ft 579kts
22-Feb-18 17:00 40.460826 -90.309087 33 37366ft 579kts
22-Feb-18 17:01 40.587172 -90.182105 31 37371ft 578kts
22-Feb-18 17:02 40.710844 -90.051826 34 37409ft 581kts
22-Feb-18 17:03 40.835407 -89.920352 33 37402ft 580kts
22-Feb-18 17:04 40.960840 -89.789338 33 37402ft 580kts
22-Feb-18 17:05 41.087593 -89.657256 31 37414ft 590kts
22-Feb-18 17:06 41.216170 -89.542583 18 37392ft 576kts
22-Feb-18 17:07 41.357677 -89.450008 16 37285ft 576kts
22-Feb-18 17:08 41.500030 -89.360149 14 37274ft 573kts
22-Feb-18 17:09 41.624143 -89.284365 29 37446ft 588kts
22-Feb-18 17:10 41.764348 -89.178842 18 37423ft 578kts
22-Feb-18 17:11 41.906261 -89.082250 18 37429ft 577kts
22-Feb-18 17:12 42.048679 -88.985980 17 37463ft 575kts
22-Feb-18 17:13 42.183808 -88.894907 17 37458ft 570kts
22-Feb-18 17:14 42.325372 -88.799915 17 37455ft 569kts
22-Feb-18 17:15 42.465663 -88.705933 17 37472ft 568kts
22-Feb-18 17:16 42.603768 -88.613906 16 37485ft 567kts
22-Feb-18 17:17 42.741194 -88.522605 16 37491ft 567kts
22-Feb-18 17:18 42.878140 -88.432236 16 37496ft 567kts
22-Feb-18 17:19 43.010037 -88.345041 15 37506ft 575kts
22-Feb-18 17:20 43.143308 -88.269464 6 37513ft 561kts
22-Feb-18 17:21 43.256213 -88.132401 39 37489ft 608kts
22-Feb-18 17:22 43.380460 -87.985463 31 37486ft 598kts
22-Feb-18 17:23 43.508907 -87.842217 31 37524ft 599kts
22-Feb-18 17:24 43.637811 -87.699369 31 37526ft 598kts
22-Feb-18 17:25 43.767404 -87.556337 30 37529ft 598kts
22-Feb-18 17:26 43.896416 -87.414434 30 37558ft 598kts
22-Feb-18 17:27 44.001776 -87.297772 31 37564ft 599kts
22-Feb-18 17:28 44.128881 -87.158240 30 37553ft 598kts
22-Feb-18 17:29 44.278062 -86.996178 30 37552ft 594kts
22-Feb-18 17:30 44.404850 -86.858078 29 37563ft 589kts
22-Feb-18 17:31 44.510221 -86.744042 29 37569ft 590kts
22-Feb-18 17:32 44.657201 -86.585673 29 37572ft 589kts
22-Feb-18 17:33 44.763298 -86.471783 28 37572ft 589kts
22-Feb-18 17:34 44.889349 -86.336855 30 37567ft 589kts
22-Feb-18 17:35 45.015948 -86.199453 29 37573ft 591kts
22-Feb-18 17:36 45.141991 -86.063927 27 37567ft 594kts
22-Feb-18 17:37 45.292568 -85.903842 27 37630ft 594kts
22-Feb-18 17:38 45.401918 -85.787941 27 37625ft 594kts
22-Feb-18 17:39 45.533001 -85.649527 26 37629ft 594kts
22-Feb-18 17:40 45.664478 -85.511353 26 37627ft 594kts
22-Feb-18 17:41 45.796350 -85.373359 26 37627ft 593kts
22-Feb-18 17:42 45.925871 -85.236426 26 37622ft 595kts
22-Feb-18 17:43 46.057454 -85.099438 26 37625ft 591kts
22-Feb-18 17:44 46.187927 -84.964990 25 37642ft 587kts
22-Feb-18 17:45 46.318863 -84.830797 24 37619ft 586kts
22-Feb-18 17:46 46.443493 -84.703852 24 37617ft 586kts
22-Feb-18 17:47 46.566218 -84.579330 23 37616ft 586kts
22-Feb-18 17:48 46.687306 -84.456919 23 37619ft 585kts
22-Feb-18 17:49 46.814103 -84.328990 25 37614ft 586kts
22-Feb-18 17:50 46.944212 -84.197110 24 37623ft 583kts
22-Feb-18 17:51 47.073945 -84.067528 23 37624ft 571kts
22-Feb-18 17:52 47.200721 -83.942386 23 37610ft 574kts
22-Feb-18 17:53 47.326423 -83.815559 21 37576ft 554kts
22-Feb-18 17:54 47.451790 -83.692297 21 37561ft 559kts
22-Feb-18 17:55 47.577062 -83.569920 20 37566ft 558kts
22-Feb-18 17:56 47.704500 -83.448485 18 37563ft 554kts
22-Feb-18 17:57 47.830243 -83.332812 39 37595ft 584kts
22-Feb-18 17:58 47.945791 -83.177403 27 37553ft 570kts
22-Feb-18 17:59 48.068606 -83.033150 26 37555ft 569kts
22-Feb-18 18:00 48.189415 -82.892635 26 37561ft 566kts
22-Feb-18 18:01 48.310121 -82.752178 25 37561ft 563kts
22-Feb-18 18:02 48.432160 -82.611474 25 37558ft 563kts
22-Feb-18 18:03 48.554465 -82.471150 24 37560ft 564kts
22-Feb-18 18:04 48.675615 -82.332323 26 37558ft 563kts
22-Feb-18 18:05 48.798545 -82.190494 25 37560ft 566kts
22-Feb-18 18:06 48.921893 -82.050234 24 37562ft 563kts
22-Feb-18 18:07 49.045122 -81.911391 24 37562ft 555kts
22-Feb-18 18:08 49.164679 -81.778478 24 37566ft 544kts
22-Feb-18 18:09 49.286325 -81.642636 24 37567ft 546kts
22-Feb-18 18:10 49.407527 -81.507305 24 37562ft 547kts
22-Feb-18 18:11 49.529125 -81.371959 24 37569ft 547kts
22-Feb-18 18:12 49.649916 -81.235737 24 37563ft 548kts
22-Feb-18 18:13 49.772648 -81.100069 24 37572ft 546kts
22-Feb-18 18:14 49.895235 -80.964791 23 37564ft 545kts
22-Feb-18 18:15 50.018638 -80.828890 23 37560ft 542kts
22-Feb-18 18:16 50.140710 -80.695459 22 37563ft 543kts
22-Feb-18 18:17 50.264113 -80.560739 22 37562ft 543kts
22-Feb-18 18:18 50.387863 -80.425853 22 37561ft 542kts
22-Feb-18 18:19 50.510754 -80.291007 23 37554ft 545kts
22-Feb-18 18:20 50.635287 -80.155935 22 37559ft 543kts
22-Feb-18 18:21 50.759475 -80.022609 22 37559ft 543kts
22-Feb-18 18:22 50.884416 -79.889834 21 37559ft 542kts
22-Feb-18 18:23 51.009240 -79.759201 21 37560ft 532kts
22-Feb-18 18:24 51.129322 -79.634209 21 37563ft 531kts
22-Feb-18 18:25 51.252788 -79.505993 21 37562ft 531kts
22-Feb-18 18:26 51.376291 -79.377465 21 37563ft 531kts
22-Feb-18 18:27 51.499529 -79.248070 22 37557ft 533kts
22-Feb-18 18:28 51.623583 -79.119794 21 37559ft 530kts
22-Feb-18 18:29 51.747185 -78.992407 20 37560ft 529kts
22-Feb-18 18:30 51.871180 -78.865595 20 37554ft 529kts
22-Feb-18 18:31 51.995136 -78.739829 19 37474ft 527kts
22-Feb-18 18:32 52.118967 -78.615795 19 37460ft 525kts
22-Feb-18 18:33 52.245034 -78.499614 19 37457ft 525kts
22-Feb-18 18:34 52.340674 -78.312611 40 37462ft 559kts
22-Feb-18 18:35 52.444392 -78.125471 37 37460ft 555kts
22-Feb-18 18:36 52.549422 -77.941300 37 37458ft 555kts
22-Feb-18 18:37 52.654749 -77.757553 37 37460ft 555kts
22-Feb-18 18:38 52.760749 -77.573386 37 37461ft 554kts
22-Feb-18 18:39 52.866916 -77.389627 36 37462ft 554kts
22-Feb-18 18:40 52.972157 -77.206743 37 37459ft 555kts
22-Feb-18 18:41 53.078767 -77.024560 37 37460ft 546kts
22-Feb-18 18:42 53.181932 -76.849589 37 37460ft 539kts
22-Feb-18 18:43 53.286618 -76.671783 36 37459ft 539kts
22-Feb-18 18:44 53.391792 -76.494028 36 37460ft 539kts
22-Feb-18 18:45 53.494787 -76.321523 37 37455ft 539kts
22-Feb-18 18:46 53.603647 -76.155481 37 37448ft 539kts
22-Feb-18 18:47 53.701099 -75.962719 40 37461ft 544kts
22-Feb-18 18:48 53.801184 -75.776712 39 37453ft 543kts
22-Feb-18 18:49 53.900665 -75.593138 39 37432ft 543kts
22-Feb-18 18:50 54.000519 -75.409578 38 37434ft 543kts
22-Feb-18 18:51 54.097478 -75.229806 39 37431ft 544kts
22-Feb-18 18:52 54.189921 -75.061802 39 37431ft 543kts
22-Feb-18 18:53 54.282679 -74.892220 36 37429ft 521kts
22-Feb-18 18:54 54.380262 -74.722635 35 37420ft 528kts
22-Feb-18 18:55 54.478441 -74.552795 35 37423ft 527kts
22-Feb-18 18:56 54.577196 -74.382287 35 37424ft 526kts
22-Feb-18 18:57 54.672164 -74.215795 35 37421ft 529kts
22-Feb-18 18:58 54.770385 -74.046104 35 37422ft 527kts
22-Feb-18 18:59 54.869566 -73.875345 35 37422ft 527kts
22-Feb-18 19:00 54.969090 -73.705048 35 37423ft 520kts
22-Feb-18 19:01 55.068612 -73.534599 36 37424ft 516kts
22-Feb-18 19:02 55.163338 -73.371306 36 37424ft 517kts
22-Feb-18 19:03 55.255688 -73.207479 37 37422ft 518kts
22-Feb-18 19:04 55.351785 -73.039597 36 37422ft 516kts
22-Feb-18 19:05 55.445123 -72.877105 36 37422ft 515kts
22-Feb-18 19:06 55.542832 -72.707735 35 37423ft 515kts
22-Feb-18 19:07 55.642014 -72.536281 35 37424ft 515kts
22-Feb-18 19:08 55.742957 -72.362172 35 37425ft 515kts
22-Feb-18 19:09 55.841433 -72.189553 36 37420ft 516kts
22-Feb-18 19:10 55.943262 -72.014539 35 37421ft 515kts
22-Feb-18 19:11 56.045788 -71.839011 35 37423ft 515kts
22-Feb-18 19:12 56.146298 -71.669251 34 37424ft 514kts
22-Feb-18 19:13 56.249947 -71.493383 34 37420ft 515kts
22-Feb-18 19:14 56.352211 -71.319107 36 37361ft 516kts
22-Feb-18 19:15 56.455878 -71.140660 34 37347ft 515kts
22-Feb-18 19:16 56.560060 -70.964295 34 37347ft 515kts
22-Feb-18 19:17 56.664517 -70.787658 34 37350ft 514kts
22-Feb-18 19:18 56.769068 -70.611526 33 37350ft 513kts
22-Feb-18 19:19 56.873565 -70.436040 33 37349ft 513kts
22-Feb-18 19:20 56.977011 -70.260548 34 37347ft 514kts
22-Feb-18 19:21 57.081292 -70.086524 34 37350ft 504kts
22-Feb-18 19:22 57.183834 -69.918550 33 37349ft 502kts
22-Feb-18 19:23 57.287737 -69.747401 33 37350ft 502kts
22-Feb-18 19:24 57.391858 -69.575802 33 37352ft 502kts
22-Feb-18 19:25 57.495725 -69.404610 33 37350ft 501kts
22-Feb-18 19:26 57.598572 -69.233019 34 37350ft 503kts
22-Feb-18 19:27 57.702886 -69.061017 33 37349ft 502kts
22-Feb-18 19:28 57.807523 -68.889088 33 37349ft 500kts
22-Feb-18 19:29 57.911894 -68.717778 33 37348ft 500kts
22-Feb-18 19:30 58.016578 -68.546889 32 37348ft 499kts
22-Feb-18 19:31 58.122871 -68.384618 36 37345ft 502kts
22-Feb-18 19:32 58.203016 -68.169864 44 37351ft 513kts
22-Feb-18 19:33 58.292200 -67.960579 44 37347ft 511kts
22-Feb-18 19:34 58.381975 -67.751398 43 37348ft 511kts
22-Feb-18 19:35 58.471681 -67.542170 43 37348ft 511kts
22-Feb-18 19:36 58.561089 -67.333383 44 37347ft 512kts
22-Feb-18 19:37 58.650537 -67.121810 44 37350ft 511kts
22-Feb-18 19:38 58.725444 -66.947085 44 37346ft 509kts
22-Feb-18 19:39 58.830386 -66.701344 43 37349ft 509kts
22-Feb-18 19:40 58.905148 -66.525982 43 37351ft 509kts
22-Feb-18 19:41 58.994002 -66.318567 46 37348ft 503kts
22-Feb-18 19:42 59.097072 -66.075251 45 37349ft 500kts
22-Feb-18 19:43 59.169908 -65.905146 45 37349ft 500kts
22-Feb-18 19:44 59.273072 -65.661792 45 37349ft 500kts
22-Feb-18 19:45 59.346800 -65.487516 45 37349ft 500kts
22-Feb-18 19:46 59.434629 -65.278079 46 37350ft 501kts
22-Feb-18 19:47 59.522951 -65.067367 45 37350ft 500kts
22-Feb-18 19:48 59.612015 -64.857581 45 37349ft 499kts
22-Feb-18 19:49 59.701207 -64.648895 45 37349ft 498kts
22-Feb-18 19:50 59.790289 -64.438895 45 37349ft 498kts
22-Feb-18 19:51 59.878655 -64.227343 46 37347ft 499kts
22-Feb-18 19:52 59.967443 -64.015841 45 37348ft 499kts
22-Feb-18 19:53 60.055476 -63.803382 45 37342ft 489kts
22-Feb-18 19:54 60.142482 -63.594542 44 37344ft 494kts
22-Feb-18 19:55 60.229932 -63.383719 44 37341ft 493kts
22-Feb-18 19:56 60.316603 -63.171654 45 37336ft 493kts
22-Feb-18 19:57 60.404194 -62.959732 45 37339ft 492kts
22-Feb-18 19:58 60.491783 -62.748039 45 37342ft 491kts
22-Feb-18 19:59 60.580423 -62.537027 41 37341ft 489kts
22-Feb-18 20:00 60.662510 -62.315189 49 37337ft 494kts
22-Feb-18 20:01 60.744001 -62.089275 48 37336ft 494kts
22-Feb-18 20:02 60.825770 -61.864399 48 37202ft 497kts
22-Feb-18 20:03 60.907598 -61.638517 48 36610ft 489kts
22-Feb-18 20:04 60.989355 -61.412220 48 36602ft 494kts
22-Feb-18 20:05 61.070025 -61.184954 49 36605ft 496kts
22-Feb-18 20:06 61.150712 -60.962363 49 36611ft 493kts
22-Feb-18 20:07 61.232370 -60.734573 49 36610ft 494kts
22-Feb-18 20:08 61.314006 -60.505208 49 36608ft 494kts
22-Feb-18 20:09 61.394773 -60.275531 50 36608ft 494kts
22-Feb-18 20:10 61.475792 -60.044139 49 36609ft 494kts
22-Feb-18 20:11 61.558054 -59.813913 48 36609ft 493kts
22-Feb-18 20:12 61.640774 -59.585492 48 36608ft 493kts
22-Feb-18 20:13 61.723752 -59.355061 48 36608ft 493kts
22-Feb-18 20:14 61.805448 -59.122988 49 36608ft 494kts
22-Feb-18 20:15 61.887795 -58.891570 49 36544ft 494kts
22-Feb-18 20:16 61.970061 -58.659555 49 36510ft 493kts
22-Feb-18 20:17 62.052112 -58.425592 49 36509ft 493kts
22-Feb-18 20:18 62.132180 -58.194612 49 36508ft 494kts
22-Feb-18 20:19 62.213712 -57.959904 50 36508ft 494kts
22-Feb-18 20:20 62.295336 -57.722223 50 36508ft 494kts
22-Feb-18 20:21 62.376258 -57.484831 49 36508ft 494kts
22-Feb-18 20:22 62.456333 -57.245270 51 36508ft 495kts
22-Feb-18 20:23 62.537017 -57.004014 50 36509ft 495kts
22-Feb-18 20:24 62.617752 -56.762696 51 36508ft 496kts
22-Feb-18 20:25 62.698081 -56.519797 50 36509ft 496kts
22-Feb-18 20:26 62.777911 -56.274581 52 36510ft 497kts
22-Feb-18 20:27 62.857332 -56.028335 51 36507ft 496kts
22-Feb-18 20:28 62.936836 -55.781980 51 36507ft 496kts
22-Feb-18 20:29 63.016270 -55.533905 51 36508ft 496kts
22-Feb-18 20:30 63.094893 -55.284755 53 36508ft 497kts
22-Feb-18 20:31 63.173699 -55.035940 52 36509ft 495kts
22-Feb-18 20:32 63.252194 -54.786561 52 36509ft 495kts
22-Feb-18 20:33 63.330341 -54.536091 52 36508ft 494kts
22-Feb-18 20:34 63.407537 -54.284654 54 36508ft 495kts
22-Feb-18 20:35 63.484411 -54.030413 53 36507ft 495kts
22-Feb-18 20:36 63.561463 -53.775135 53 36507ft 495kts
22-Feb-18 20:37 63.637811 -53.519348 53 36508ft 495kts
22-Feb-18 20:38 63.713079 -53.262229 55 36510ft 495kts
22-Feb-18 20:39 63.788362 -53.002538 54 36508ft 495kts
22-Feb-18 20:40 63.863708 -52.742447 54 36508ft 496kts
22-Feb-18 20:41 63.938386 -52.480397 54 36509ft 495kts
22-Feb-18 20:42 64.011543 -52.218101 55 36508ft 496kts
22-Feb-18 20:43 64.090212 -51.962992 39 36522ft 490kts
22-Feb-18 20:44 64.189811 -51.757389 39 36507ft 490kts
22-Feb-18 20:45 64.290320 -51.546242 39 36507ft 491kts
22-Feb-18 20:46 64.389608 -51.335752 40 36506ft 490kts
22-Feb-18 20:47 64.488860 -51.121112 40 36508ft 491kts
22-Feb-18 20:48 64.588758 -50.905782 40 36508ft 492kts
22-Feb-18 20:49 64.688633 -50.688471 40 36509ft 492kts
22-Feb-18 20:50 64.788128 -50.469729 40 36509ft 492kts
22-Feb-18 20:51 64.886640 -50.249447 41 36508ft 493kts
22-Feb-18 20:52 64.985945 -50.028622 40 36508ft 492kts
22-Feb-18 20:53 65.060650 -49.759204 56 36520ft 497kts
22-Feb-18 20:54 65.131451 -49.485819 56 36563ft 496kts
22-Feb-18 20:55 65.202254 -49.206558 57 36563ft 496kts
22-Feb-18 20:56 65.273146 -48.925515 57 36563ft 495kts
22-Feb-18 20:57 65.343350 -48.643498 57 36562ft 495kts
22-Feb-18 20:58 65.412952 -48.359597 57 36562ft 495kts
22-Feb-18 20:59 65.479916 -48.078537 58 36562ft 495kts
22-Feb-18 21:00 65.548304 -47.790878 58 36562ft 495kts
22-Feb-18 21:01 65.615985 -47.501982 58 36563ft 495kts
22-Feb-18 21:02 65.682206 -47.211482 60 36561ft 495kts
22-Feb-18 21:03 65.748444 -46.918711 60 36562ft 495kts
22-Feb-18 21:04 65.814237 -46.624856 60 36563ft 495kts
22-Feb-18 21:05 65.879013 -46.329571 61 36562ft 496kts
22-Feb-18 21:06 65.942615 -46.030230 61 36611ft 494kts
22-Feb-18 21:07 66.006003 -45.730849 61 36987ft 499kts
22-Feb-18 21:08 66.068481 -45.430658 61 36998ft 495kts
22-Feb-18 21:09 66.130279 -45.127111 62 37004ft 495kts
22-Feb-18 21:10 66.192079 -44.823614 63 37003ft 495kts
22-Feb-18 21:11 66.252952 -44.518381 63 37002ft 495kts
22-Feb-18 21:12 66.312103 -44.210872 65 37001ft 495kts
22-Feb-18 21:13 66.370824 -43.901327 64 37001ft 495kts
22-Feb-18 21:14 66.428755 -43.590254 65 37001ft 495kts
22-Feb-18 21:15 66.485274 -43.278206 67 37000ft 495kts
22-Feb-18 21:16 66.541436 -42.961797 66 36424ft 501kts
22-Feb-18 21:17 66.596862 -42.645166 67 36139ft 499kts
22-Feb-18 21:18 66.651153 -42.324228 69 36135ft 497kts
22-Feb-18 21:19 66.703405 -42.002284 69 36130ft 498kts
22-Feb-18 21:20 66.755408 -41.678307 69 36129ft 498kts
22-Feb-18 21:21 66.806304 -41.352781 69 36141ft 498kts
22-Feb-18 21:22 66.855331 -41.024633 70 36566ft 498kts
22-Feb-18 21:23 66.904822 -40.695424 71 36903ft 500kts
22-Feb-18 21:24 66.952436 -40.362233 72 37260ft 500kts
22-Feb-18 21:25 66.997027 -40.029189 75 37604ft 498kts
22-Feb-18 21:26 67.047982 -39.699162 69 37884ft 501kts
22-Feb-18 21:27 67.100236 -39.370099 70 38148ft 500kts
22-Feb-18 21:28 67.151031 -39.038720 71 38129ft 500kts
22-Feb-18 21:29 67.202356 -38.703249 72 38130ft 506kts
22-Feb-18 21:30 67.251782 -38.364963 72 38130ft 505kts
22-Feb-18 21:31 67.298200 -38.031751 74 38130ft 504kts
22-Feb-18 21:32 67.345086 -37.689830 74 38129ft 504kts
22-Feb-18 21:33 67.390628 -37.347004 75 38131ft 504kts
22-Feb-18 21:34 67.434323 -37.003367 76 38131ft 505kts
22-Feb-18 21:35 67.477922 -36.657182 77 38128ft 505kts
22-Feb-18 21:36 67.519559 -36.308734 78 38129ft 506kts
22-Feb-18 21:37 67.559204 -35.958294 78 38129ft 505kts
22-Feb-18 21:38 67.598245 -35.605413 78 38131ft 504kts
22-Feb-18 21:39 67.635238 -35.254330 81 38129ft 503kts
22-Feb-18 21:40 67.671138 -34.899086 80 38129ft 506kts
22-Feb-18 21:41 67.707164 -34.541083 82 38129ft 507kts
22-Feb-18 21:42 67.740161 -34.183451 83 38129ft 505kts
22-Feb-18 21:43 67.772041 -33.823064 83 38133ft 505kts
22-Feb-18 21:44 67.802370 -33.463337 83 38131ft 506kts
22-Feb-18 21:45 67.830202 -33.105584 85 38129ft 504kts
22-Feb-18 21:46 67.858708 -32.741721 86 38130ft 513kts
22-Feb-18 21:47 67.884683 -32.373107 88 38133ft 510kts
22-Feb-18 21:48 67.908110 -32.003969 89 38124ft 511kts
22-Feb-18 21:49 67.930595 -31.633328 89 38132ft 510kts
22-Feb-18 21:50 67.947754 -31.325451 91 38129ft 510kts
22-Feb-18 21:51 67.970075 -30.890543 91 38141ft 514kts
22-Feb-18 21:52 67.987272 -30.510223 93 38139ft 517kts
22-Feb-18 21:53 67.998382 -30.195593 95 38127ft 515kts
22-Feb-18 21:54 68.013416 -29.773248 80 39025ft 519kts
22-Feb-18 21:55 68.037529 -29.463031 89 38986ft 514kts
22-Feb-18 21:56 68.058184 -29.090843 92 38504ft 502kts
22-Feb-18 21:57 68.081335 -28.654453 93 38485ft 519kts
22-Feb-18 21:58 68.095978 -28.342074 94 38481ft 521kts
22-Feb-18 21:59 68.111704 -27.967367 95 38473ft 518kts
22-Feb-18 22:00 68.126206 -27.586074 95 38476ft 516kts
22-Feb-18 22:01 68.138153 -27.208809 97 38482ft 514kts
22-Feb-18 22:02 68.148523 -26.829221 97 38477ft 520kts
22-Feb-18 22:03 68.157320 -26.443623 97 38480ft 522kts
22-Feb-18 22:04 68.163720 -26.061439 99 38480ft 519kts
22-Feb-18 22:05 68.168767 -25.675454 99 38479ft 519kts
22-Feb-18 22:06 68.171915 -25.291566 101 38479ft 518kts
22-Feb-18 22:07 68.171996 -24.906479 100 38481ft 521kts
22-Feb-18 22:08 68.171081 -24.518187 100 38479ft 521kts
22-Feb-18 22:09 68.168043 -24.133560 102 38478ft 519kts
22-Feb-18 22:10 68.163393 -23.747758 102 38480ft 520kts
22-Feb-18 22:11 68.156872 -23.361552 103 38481ft 519kts
22-Feb-18 22:12 68.147753 -22.979107 104 38511ft 516kts
22-Feb-18 22:13 68.136022 -22.592432 103 38509ft 520kts
22-Feb-18 22:14 68.122941 -22.209375 106 38508ft 517kts
22-Feb-18 22:15 68.108083 -21.826987 106 38507ft 518kts
22-Feb-18 22:16 68.091374 -21.445447 106 38508ft 517kts
22-Feb-18 22:17 68.072116 -21.066114 107 38678ft 515kts
22-Feb-18 22:18 68.050097 -20.687702 107 38672ft 517kts
22-Feb-18 22:19 68.026628 -20.310053 109 38668ft 515kts
22-Feb-18 22:20 67.998696 -19.937417 101 38661ft 522kts
22-Feb-18 22:21 68.029514 -19.547198 85 38664ft 541kts
22-Feb-18 22:22 68.053203 -19.152716 87 38669ft 538kts
22-Feb-18 22:23 68.073554 -18.759871 87 38669ft 535kts
22-Feb-18 22:24 68.093006 -18.365596 87 38666ft 535kts
22-Feb-18 22:25 68.109466 -17.977631 89 38670ft 535kts
22-Feb-18 22:26 68.124880 -17.582146 89 38669ft 535kts
22-Feb-18 22:27 68.137822 -17.186452 91 38670ft 532kts
22-Feb-18 22:28 68.148322 -16.791055 91 38669ft 530kts
22-Feb-18 22:29 68.156994 -16.396422 90 38673ft 531kts
22-Feb-18 22:30 68.163402 -16.004639 92 38698ft 527kts
22-Feb-18 22:31 68.168477 -15.610081 92 38769ft 529kts
22-Feb-18 22:32 68.170974 -15.217438 94 38779ft 528kts
22-Feb-18 22:33 68.170986 -14.824351 93 38776ft 521kts
22-Feb-18 22:34 68.169502 -14.434955 93 38783ft 524kts
22-Feb-18 22:35 68.165714 -14.046273 95 38779ft 521kts
22-Feb-18 22:36 68.160388 -13.658032 95 38776ft 521kts
22-Feb-18 22:37 68.152820 -13.271215 98 38773ft 521kts
22-Feb-18 22:38 68.142279 -12.884248 97 38778ft 516kts
22-Feb-18 22:39 68.130565 -12.500329 97 38779ft 518kts
22-Feb-18 22:40 68.116530 -12.118967 99 38775ft 518kts
22-Feb-18 22:41 68.100934 -11.736181 99 38777ft 517kts
22-Feb-18 22:42 68.083398 -11.354101 100 38770ft 517kts
22-Feb-18 22:43 68.063138 -10.975382 101 38773ft 516kts
22-Feb-18 22:44 68.040869 -10.600421 100 38775ft 509kts
22-Feb-18 22:45 68.016833 -10.227336 103 38778ft 510kts
22-Feb-18 22:46 67.994295 -9.855058 90 38787ft 514kts
22-Feb-18 22:47 68.003429 -9.474210 86 38779ft 514kts
22-Feb-18 22:48 68.012688 -9.094859 87 38779ft 514kts
22-Feb-18 22:49 68.020307 -8.718725 87 38938ft 506kts
22-Feb-18 22:50 68.026437 -8.348250 88 38941ft 508kts
22-Feb-18 22:51 68.030332 -7.973557 89 38940ft 508kts
22-Feb-18 22:52 68.032870 -7.596485 89 38939ft 507kts
22-Feb-18 22:53 68.033297 -7.221627 91 38941ft 508kts
22-Feb-18 22:54 68.031857 -6.852780 91 38947ft 490kts
22-Feb-18 22:55 68.028823 -6.485835 91 38942ft 495kts
22-Feb-18 22:56 68.020210 -6.124642 91 38936ft 496kts
22-Feb-18 22:57 68.030171 -5.758402 85 38938ft 495kts
22-Feb-18 22:58 68.003538 -5.402242 103 38936ft 494kts
22-Feb-18 22:59 67.974755 -5.046059 103 38939ft 494kts
22-Feb-18 23:00 67.945770 -4.689267 103 38941ft 494kts
22-Feb-18 23:01 67.916629 -4.333265 104 38941ft 494kts
22-Feb-18 23:02 67.887008 -3.978820 104 38941ft 494kts
22-Feb-18 23:03 67.856470 -3.623988 103 38939ft 494kts
22-Feb-18 23:04 67.825483 -3.270654 104 38939ft 494kts
22-Feb-18 23:05 67.794404 -2.916771 104 38941ft 496kts
22-Feb-18 23:06 67.764749 -2.561342 104 38961ft 495kts
22-Feb-18 23:07 67.734743 -2.207452 105 39000ft 496kts
22-Feb-18 23:08 67.704298 -1.854051 105 39002ft 496kts
22-Feb-18 23:09 67.673284 -1.500961 105 39003ft 496kts
22-Feb-18 23:10 67.641701 -1.148215 105 39002ft 496kts
22-Feb-18 23:11 67.609433 -0.794526 105 39001ft 502kts
22-Feb-18 23:12 67.585305 -0.436781 95 39002ft 504kts
22-Feb-18 23:13 67.575846 -0.070959 95 39002ft 503kts
22-Feb-18 23:14 67.558939 0.290569 117 39014ft 495kts
22-Feb-18 23:15 67.501730 0.616961 117 39161ft 494kts
22-Feb-18 23:16 67.444024 0.943748 117 39281ft 497kts
22-Feb-18 23:17 67.384018 1.265747 117 39317ft 499kts
22-Feb-18 23:18 67.321817 1.581995 117 39322ft 497kts
22-Feb-18 23:19 67.259951 1.893765 118 39320ft 496kts
22-Feb-18 23:20 67.196594 2.209943 118 39318ft 497kts
22-Feb-18 23:21 67.132810 2.524729 118 39320ft 497kts
22-Feb-18 23:22 67.068643 2.838444 119 39318ft 497kts
22-Feb-18 23:23 67.002586 3.148501 118 39319ft 498kts
22-Feb-18 23:24 66.933614 3.453473 118 39320ft 497kts
22-Feb-18 23:25 66.864547 3.755237 119 39318ft 496kts
22-Feb-18 23:26 66.794489 4.057879 119 39319ft 496kts
22-Feb-18 23:27 66.724294 4.357951 119 39319ft 496kts
22-Feb-18 23:28 66.653756 4.656504 120 39317ft 496kts
22-Feb-18 23:29 66.582745 4.953507 120 39317ft 497kts
22-Feb-18 23:30 66.509553 5.246068 120 39318ft 496kts
22-Feb-18 23:31 66.435764 5.537014 119 39319ft 496kts
22-Feb-18 23:32 66.362009 5.825914 120 39319ft 496kts
22-Feb-18 23:33 66.294383 6.123674 116 39320ft 495kts
22-Feb-18 23:34 66.227353 6.420459 116 39319ft 495kts
22-Feb-18 23:35 66.159996 6.715949 117 39319ft 495kts
22-Feb-18 23:36 66.092206 7.011318 117 39318ft 495kts
22-Feb-18 23:37 66.023386 7.304946 117 39319ft 496kts
22-Feb-18 23:38 65.954041 7.596355 117 39319ft 496kts
22-Feb-18 23:39 65.897255 7.833475 117 39319ft 496kts
22-Feb-18 23:40 65.827231 8.122004 118 39319ft 496kts
22-Feb-18 23:41 65.756653 8.410045 117 39318ft 496kts
22-Feb-18 23:42 65.685959 8.696009 118 39318ft 496kts
22-Feb-18 23:43 65.614802 8.981893 118 39318ft 496kts
22-Feb-18 23:44 65.542268 9.266040 118 39319ft 499kts
22-Feb-18 23:45 65.469110 9.548919 118 39298ft 499kts
22-Feb-18 23:46 65.396072 9.829378 119 39292ft 499kts
22-Feb-18 23:47 65.322440 10.110058 118 39293ft 498kts
22-Feb-18 23:48 65.248433 10.389776 118 39293ft 498kts
22-Feb-18 23:49 65.174499 10.666908 119 39292ft 499kts
22-Feb-18 23:50 65.099881 10.943428 119 39293ft 501kts
22-Feb-18 23:51 65.021764 11.216789 119 39293ft 501kts
22-Feb-18 23:52 64.943169 11.487420 119 39298ft 502kts
22-Feb-18 23:53 64.866392 11.749431 120 39315ft 502kts
22-Feb-18 23:54 64.788064 12.018622 119 39343ft 511kts
22-Feb-18 23:55 64.708783 12.291727 119 39333ft 507kts
22-Feb-18 23:56 64.629211 12.563496 119 39321ft 508kts
22-Feb-18 23:57 64.549412 12.834341 120 39320ft 510kts
22-Feb-18 23:58 64.469019 13.103021 120 39364ft 513kts
22-Feb-18 23:59 64.382476 13.371308 120 39395ft 522kts
23-Feb-18 00:00 64.295401 13.636441 120 39378ft 521kts
23-Feb-18 00:01 64.223078 13.856068 120 39371ft 521kts
23-Feb-18 00:02 64.121022 14.163428 120 39376ft 521kts
23-Feb-18 00:03 64.033463 14.424564 120 39374ft 520kts
23-Feb-18 00:04 63.945707 14.684536 121 39374ft 520kts
23-Feb-18 00:05 63.872474 14.899813 121 39374ft 521kts
23-Feb-18 00:06 63.765525 15.199501 121 39371ft 530kts
23-Feb-18 00:07 63.671909 15.452905 121 39375ft 530kts
23-Feb-18 00:08 63.577935 15.705211 121 39380ft 528kts
23-Feb-18 00:09 63.499484 15.915607 121 39381ft 529kts
23-Feb-18 00:10 63.405234 16.166335 121 39436ft 531kts
23-Feb-18 00:11 63.311001 16.415193 121 39448ft 528kts
23-Feb-18 00:12 63.216654 16.662574 122 39466ft 529kts
23-Feb-18 00:13 63.121776 16.909720 122 39473ft 530kts
23-Feb-18 00:14 63.025647 17.150115 122 39478ft 531kts
23-Feb-18 00:15 62.928044 17.390089 121 39493ft 529kts
23-Feb-18 00:16 62.831650 17.624730 121 39469ft 530kts
23-Feb-18 00:17 62.733408 17.863119 122 39477ft 531kts
23-Feb-18 00:18 62.634834 18.100682 122 39482ft 532kts
23-Feb-18 00:19 62.535879 18.337435 122 39489ft 531kts
23-Feb-18 00:20 62.436950 18.572233 122 39483ft 530kts
23-Feb-18 00:21 62.338035 18.806773 123 39463ft 531kts
23-Feb-18 00:22 62.238952 19.040775 122 39478ft 528kts
23-Feb-18 00:23 62.143122 19.275791 122 38146ft 526kts
23-Feb-18 00:24 62.048689 19.510129 122 35966ft 519kts
23-Feb-18 00:25 61.955809 19.739161 123 34012ft 522kts
23-Feb-18 00:26 61.861561 19.972141 123 32003ft 522kts
23-Feb-18 00:27 61.768122 20.205465 123 29881ft 522kts
23-Feb-18 00:28 61.677203 20.434877 123 27862ft 511kts
23-Feb-18 00:29 61.589037 20.658644 123 25837ft 493kts
23-Feb-18 00:30 61.503275 20.877973 123 24073ft 481kts
23-Feb-18 00:31 61.422949 21.090518 123 22214ft 460kts
23-Feb-18 00:32 61.348308 21.299865 123 21219ft 452kts
23-Feb-18 00:33 61.276313 21.503648 123 18933ft 429kts
23-Feb-18 00:34 61.209210 21.695999 123 16636ft 414kts
23-Feb-18 00:35 61.144620 21.884231 123 14287ft 396kts
23-Feb-18 00:36 61.082939 22.063562 124 12639ft 378kts
23-Feb-18 00:37 61.024058 22.237084 123 11569ft 367kts
23-Feb-18 00:38 60.966593 22.405485 123 11113ft 351kts
23-Feb-18 00:39 60.911688 22.564747 123 10953ft 335kts
23-Feb-18 00:40 60.865870 22.695241 125 10881ft 329kts
23-Feb-18 00:41 60.813387 22.843374 124 10828ft 325kts
23-Feb-18 00:42 60.761237 22.991782 125 10706ft 320kts
23-Feb-18 00:43 60.710302 23.135665 125 10558ft 306kts
23-Feb-18 00:44 60.661862 23.270658 125 10218ft 285kts
23-Feb-18 00:45 60.614894 23.400008 125 9551ft 280kts
23-Feb-18 00:46 60.568462 23.526532 125 9063ft 279kts
23-Feb-18 00:47 60.523179 23.648955 125 8581ft 276kts
23-Feb-18 00:48 60.478225 23.768271 126 8099ft 273kts
23-Feb-18 00:49 60.436095 23.891469 117 7509ft 266kts
23-Feb-18 00:50 60.390555 24.005744 128 6658ft 264kts
23-Feb-18 00:51 60.344277 24.117169 128 5261ft 251kts
23-Feb-18 00:52 60.301933 24.218395 128 3849ft 227kts
23-Feb-18 00:53 60.263869 24.311351 125 2995ft 207kts
23-Feb-18 00:54 60.231996 24.396555 125 2496ft 178kts
23-Feb-18 00:55 60.205984 24.475195 117 2286ft 166kts
23-Feb-18 00:56 60.184313 24.557519 119 2287ft 167kts
23-Feb-18 00:57 60.192297 24.638937 44 2295ft 165kts
23-Feb-18 00:58 60.220876 24.702344 47 2285ft 151kts
23-Feb-18 00:59 60.248210 24.762030 47 2260ft 132kts
23-Feb-18 01:00 60.273306 24.816966 46 1174ft 127kts
23-Feb-18 01:01 60.297834 24.870536 46 486ft 129kts
23-Feb-18 01:02 60.320903 24.921338 47 12ft 82kts
23-Feb-18 01:03 60.325087 24.934392 72 13ft 11kts

Navigation Log

Ident Type
Flight plan parsing failed, navigation log unavailable